createdAt,value
2023-01-01T00:01:17.246Z,96521.66
2023-01-01T00:04:16.792Z,96523.38
2023-01-01T00:06:46.307Z,96524.41
2023-01-01T00:09:32.552Z,96516.22
2023-01-01T00:12:01.254Z,96525.50
2023-01-01T00:14:31.549Z,96522.22
2023-01-01T00:17:00.147Z,96527.53
2023-01-01T00:19:28.730Z,96537.75
2023-01-01T00:21:57.624Z,96533.47
2023-01-01T00:24:26.410Z,96530.81
2023-01-01T00:27:16.363Z,96527.22
2023-01-01T00:29:46.555Z,96530.06
2023-01-01T00:32:22.312Z,96535.19
2023-01-01T00:34:51.753Z,96531.31
2023-01-01T00:37:20.747Z,96533.88
2023-01-01T00:39:49.239Z,96537.06
2023-01-01T00:42:18.124Z,96532.56
2023-01-01T00:44:48.405Z,96529.94
2023-01-01T00:47:16.941Z,96535.94
2023-01-01T00:49:45.099Z,96531.66
2023-01-01T00:52:13.857Z,96535.19
2023-01-01T00:54:45.734Z,96533.94
2023-01-01T00:57:16.282Z,96532.69
2023-01-01T00:59:44.948Z,96544.25
2023-01-01T01:02:15.244Z,96540.97
2023-01-01T01:04:44.664Z,96540.34
2023-01-01T01:07:13.360Z,96542.16
2023-01-01T01:09:41.789Z,96542.25
2023-01-01T01:12:17.824Z,96540.69
2023-01-01T01:14:47.864Z,96546.81
2023-01-01T01:17:18.073Z,96547.81
2023-01-01T01:19:46.748Z,96544.72
2023-01-01T01:22:15.508Z,96558.03
2023-01-01T01:24:46.051Z,96556.41
2023-01-01T01:27:15.353Z,96552.81
2023-01-01T01:29:44.247Z,96563.13
2023-01-01T01:32:15.771Z,96560.56
2023-01-01T01:34:46.020Z,96557.09
2023-01-01T01:37:16.067Z,96559.03
2023-01-01T01:39:53.587Z,96559.28
2023-01-01T01:42:23.653Z,96561.84
2023-01-01T01:44:58.054Z,96552.47
2023-01-01T01:47:33.963Z,96556.94
2023-01-01T01:50:09.116Z,96569.69
2023-01-01T01:52:40.069Z,96570.75
2023-01-01T01:55:10.525Z,96567.41
2023-01-01T01:57:40.526Z,96566.94
2023-01-01T02:00:11.453Z,96574.25
2023-01-01T02:02:45.389Z,96571.78
2023-01-01T02:05:18.119Z,96568.31
2023-01-01T02:07:47.108Z,96575.41
2023-01-01T02:10:15.809Z,96579.44
2023-01-01T02:12:46.545Z,96568.78
2023-01-01T02:15:15.451Z,96574.88
2023-01-01T02:17:52.619Z,96571.47
2023-01-01T02:20:30.837Z,96580.94
2023-01-01T02:23:30.156Z,96579.50
2023-01-01T02:26:12.798Z,96586.50
2023-01-01T02:29:03.738Z,96580.50
2023-01-01T02:31:34.458Z,96578.03
2023-01-01T02:34:05.978Z,96579.13
2023-01-01T02:36:35.707Z,96571.75
2023-01-01T02:39:06.677Z,96568.53
2023-01-01T02:41:39.670Z,96577.34
2023-01-01T02:44:09.946Z,96572.72
2023-01-01T02:46:38.703Z,96568.50
2023-01-01T02:49:10.632Z,96571.97
2023-01-01T02:51:51.168Z,96571.22
2023-01-01T02:54:27.396Z,96571.50
2023-01-01T02:56:59.919Z,96574.25
2023-01-01T02:59:52.330Z,96580.31
2023-01-01T03:02:24.995Z,96563.72
2023-01-01T03:05:02.709Z,96563.47
2023-01-01T03:07:36.917Z,96566.75
2023-01-01T03:10:16.040Z,96562.66
2023-01-01T03:12:48.503Z,96573.69
2023-01-01T03:15:25.972Z,96571.03
2023-01-01T03:17:59.708Z,96564.19
2023-01-01T03:20:31.262Z,96570.03
2023-01-01T03:23:03.781Z,96572.50
2023-01-01T03:25:34.859Z,96569.03
2023-01-01T03:28:19.088Z,96580.03
2023-01-01T03:30:50.288Z,96569.03
2023-01-01T03:33:22.675Z,96579.97
2023-01-01T03:35:53.264Z,96580.88
2023-01-01T03:38:24.295Z,96573.13
2023-01-01T03:40:56.090Z,96574.69
2023-01-01T03:43:33.463Z,96574.63
2023-01-01T03:46:03.973Z,96574.34
2023-01-01T03:48:58.503Z,96576.97
2023-01-01T03:51:39.590Z,96571.78
2023-01-01T03:54:10.556Z,96569.25
2023-01-01T03:56:42.499Z,96571.00
2023-01-01T03:59:16.499Z,96568.44
2023-01-01T04:01:49.603Z,96570.16
2023-01-01T04:04:19.512Z,96576.75
2023-01-01T04:06:48.805Z,96577.53
2023-01-01T04:09:30.589Z,96576.66
2023-01-01T04:12:14.484Z,96580.81
2023-01-01T04:14:45.278Z,96587.63
2023-01-01T04:17:15.826Z,96587.63
2023-01-01T04:19:48.797Z,96584.19
2023-01-01T04:22:23.747Z,96575.63
2023-01-01T04:24:52.469Z,96586.38
2023-01-01T04:27:34.486Z,96589.69
2023-01-01T04:30:03.062Z,96591.41
2023-01-01T04:32:33.156Z,96593.16
2023-01-01T04:35:01.960Z,96593.25
2023-01-01T04:37:30.895Z,96596.75
2023-01-01T04:39:59.649Z,96590.19
2023-01-01T04:42:28.329Z,96588.56
2023-01-01T04:45:01.186Z,96580.91
2023-01-01T04:47:29.948Z,96585.28
2023-01-01T04:50:00.196Z,96592.66
2023-01-01T04:52:29.519Z,96600.28
2023-01-01T04:54:58.223Z,96595.19
2023-01-01T04:57:27.086Z,96594.50
2023-01-01T04:59:55.966Z,96597.94
2023-01-01T05:02:24.888Z,96605.84
2023-01-01T05:04:53.669Z,96615.31
2023-01-01T05:07:23.616Z,96605.09
2023-01-01T05:09:52.072Z,96595.47
2023-01-01T05:12:21.175Z,96601.13
2023-01-01T05:14:49.947Z,96602.03
2023-01-01T05:17:18.583Z,96598.94
2023-01-01T05:19:47.203Z,96585.47
2023-01-01T05:22:15.681Z,96594.00
2023-01-01T05:24:45.947Z,96600.19
2023-01-01T05:27:14.506Z,96598.81
2023-01-01T05:29:43.750Z,96600.78
2023-01-01T05:34:48.791Z,96619.72
2023-01-01T05:37:17.654Z,96624.25
2023-01-01T05:39:48.401Z,96628.78
2023-01-01T05:42:19.336Z,96624.59
2023-01-01T05:44:48.250Z,96622.97
2023-01-01T05:47:18.981Z,96625.66
2023-01-01T05:49:47.700Z,96634.38
2023-01-01T05:52:21.611Z,96629.66
2023-01-01T05:54:58.486Z,96632.38
2023-01-01T05:57:26.853Z,96640.09
2023-01-01T05:59:55.585Z,96636.97
2023-01-01T06:02:24.062Z,96637.69
2023-01-01T06:05:18.021Z,96648.97
2023-01-01T06:07:48.810Z,96654.06
2023-01-01T06:10:19.195Z,96655.84
2023-01-01T06:13:06.721Z,96664.31
2023-01-01T06:15:42.194Z,96666.94
2023-01-01T06:18:11.018Z,96659.53
2023-01-01T06:20:39.823Z,96670.53
2023-01-01T06:23:08.986Z,96672.34
2023-01-01T06:25:39.152Z,96674.91
2023-01-01T06:28:07.906Z,96679.09
2023-01-01T06:33:26.915Z,96686.88
2023-01-01T06:35:55.351Z,96687.78
2023-01-01T06:38:24.189Z,96698.81
2023-01-01T06:41:02.309Z,96697.22
2023-01-01T06:43:32.419Z,96696.31
2023-01-01T06:46:04.101Z,96697.06
2023-01-01T06:48:35.160Z,96699.53
2023-01-01T06:51:08.313Z,96708.81
2023-01-01T06:53:37.316Z,96710.38
2023-01-01T06:56:08.274Z,96698.63
2023-01-01T06:58:36.982Z,96711.44
2023-01-01T07:01:08.776Z,96716.53
2023-01-01T07:03:37.697Z,96725.06
2023-01-01T07:06:06.810Z,96730.06
2023-01-01T07:11:44.664Z,96731.88
2023-01-01T07:14:17.541Z,96737.69
2023-01-01T07:16:46.263Z,96735.25
2023-01-01T07:19:14.944Z,96738.63
2023-01-01T07:21:45.666Z,96739.44
2023-01-01T07:24:16.107Z,96737.78
2023-01-01T07:26:46.745Z,96737.78
2023-01-01T07:29:15.567Z,96744.38
2023-01-01T07:31:45.552Z,96733.13
2023-01-01T07:34:19.282Z,96742.06
2023-01-01T07:36:47.830Z,96748.75
2023-01-01T07:39:16.507Z,96745.06
2023-01-01T07:41:53.295Z,96741.34
2023-01-01T07:44:22.850Z,96747.75
2023-01-01T07:46:51.237Z,96755.47
2023-01-01T07:49:19.810Z,96749.94
2023-01-01T07:51:48.260Z,96748.38
2023-01-01T07:54:17.172Z,96753.22
2023-01-01T07:56:47.220Z,96747.97
2023-01-01T07:59:20.350Z,96749.69
2023-01-01T08:01:49.235Z,96738.34
2023-01-01T08:04:17.574Z,96736.31
2023-01-01T08:06:46.324Z,96744.69
2023-01-01T08:09:15.569Z,96741.34
2023-01-01T08:11:44.198Z,96729.00
2023-01-01T08:14:14.579Z,96732.91
2023-01-01T08:16:43.299Z,96731.81
2023-01-01T08:19:16.308Z,96742.38
2023-01-01T08:21:45.400Z,96750.84
2023-01-01T08:24:13.924Z,96754.44
2023-01-01T08:26:42.437Z,96759.78
2023-01-01T08:29:13.567Z,96761.22
2023-01-01T08:31:43.406Z,96760.84
2023-01-01T08:34:11.723Z,96755.53
2023-01-01T08:36:41.375Z,96757.72
2023-01-01T08:40:08.751Z,96757.00
2023-01-01T08:42:37.480Z,96759.06
2023-01-01T08:45:09.403Z,96758.56
2023-01-01T08:47:37.980Z,96771.44
2023-01-01T08:50:07.839Z,96767.44
2023-01-01T08:52:36.389Z,96776.25
2023-01-01T08:55:05.389Z,96774.97
2023-01-01T08:57:34.083Z,96771.31
2023-01-01T09:00:03.068Z,96783.34
2023-01-01T09:02:33.645Z,96774.41
2023-01-01T09:05:02.490Z,96785.19
2023-01-01T09:07:31.286Z,96776.25
2023-01-01T09:10:01.837Z,96779.41
2023-01-01T09:12:30.763Z,96786.00
2023-01-01T09:14:59.642Z,96781.19
2023-01-01T09:17:32.799Z,96788.97
2023-01-01T09:20:01.257Z,96778.31
2023-01-01T09:22:29.781Z,96784.28
2023-01-01T09:24:58.379Z,96788.84
2023-01-01T09:27:26.761Z,96787.41
2023-01-01T09:29:55.879Z,96784.84
2023-01-01T09:32:25.158Z,96784.41
2023-01-01T09:34:55.197Z,96785.41
2023-01-01T09:37:24.408Z,96777.34
2023-01-01T09:39:53.304Z,96766.09
2023-01-01T09:42:29.486Z,96771.72
2023-01-01T09:45:07.705Z,96770.03
2023-01-01T09:47:46.999Z,96762.03
2023-01-01T09:50:22.980Z,96759.81
2023-01-01T09:52:55.866Z,96755.16
2023-01-01T09:55:28.797Z,96741.22
2023-01-01T09:57:58.114Z,96747.66
2023-01-01T10:00:27.252Z,96750.84
2023-01-01T10:03:19.967Z,96751.13
2023-01-01T10:05:56.229Z,96758.59
2023-01-01T10:08:45.874Z,96747.72
2023-01-01T10:11:20.221Z,96750.97
2023-01-01T10:13:48.671Z,96751.84
2023-01-01T10:16:24.893Z,96742.56
2023-01-01T10:19:22.450Z,96744.19
2023-01-01T10:21:53.322Z,96736.44
2023-01-01T10:24:35.415Z,96740.06
2023-01-01T10:27:06.430Z,96744.66
2023-01-01T10:29:40.520Z,96739.69
2023-01-01T10:32:20.957Z,96732.22
2023-01-01T10:34:50.513Z,96730.66
2023-01-01T10:37:21.076Z,96736.44
2023-01-01T10:40:50.464Z,96740.06
2023-01-01T10:43:21.624Z,96741.50
2023-01-01T10:45:53.892Z,96731.31
2023-01-01T10:48:24.215Z,96734.16
2023-01-01T10:50:54.306Z,96732.59
2023-01-01T10:53:30.880Z,96733.56
2023-01-01T10:56:02.846Z,96738.31
2023-01-01T10:59:01.746Z,96731.38
2023-01-01T11:01:32.084Z,96738.41
2023-01-01T11:04:01.844Z,96733.63
2023-01-01T11:06:33.795Z,96736.00
2023-01-01T11:09:07.307Z,96737.84
2023-01-01T11:11:44.479Z,96733.19
2023-01-01T11:14:22.982Z,96744.13
2023-01-01T11:16:56.940Z,96736.22
2023-01-01T11:19:30.876Z,96733.81
2023-01-01T11:22:02.584Z,96732.03
2023-01-01T11:24:34.506Z,96737.31
2023-01-01T11:27:18.127Z,96737.28
2023-01-01T11:29:47.397Z,96726.88
2023-01-01T11:32:21.799Z,96730.16
2023-01-01T11:34:55.603Z,96736.56
2023-01-01T11:37:47.276Z,96734.34
2023-01-01T11:40:20.699Z,96739.53
2023-01-01T11:42:58.353Z,96736.97
2023-01-01T11:45:37.635Z,96736.94
2023-01-01T11:48:09.789Z,96732.13
2023-01-01T11:50:40.744Z,96731.69
2023-01-01T11:53:21.482Z,96730.94
2023-01-01T11:55:54.258Z,96727.59
2023-01-01T11:58:29.154Z,96734.50
2023-01-01T12:01:01.281Z,96725.91
2023-01-01T12:03:34.457Z,96719.56
2023-01-01T12:06:07.811Z,96726.25
2023-01-01T12:08:38.999Z,96722.19
2023-01-01T12:11:16.903Z,96731.13
2023-01-01T12:13:52.611Z,96721.19
2023-01-01T12:16:24.042Z,96719.38
2023-01-01T12:19:15.251Z,96719.00
2023-01-01T12:21:52.491Z,96704.13
2023-01-01T12:24:21.814Z,96713.81
2023-01-01T12:27:10.320Z,96713.63
2023-01-01T12:29:50.517Z,96713.22
2023-01-01T12:32:24.252Z,96716.81
2023-01-01T12:34:58.115Z,96713.03
2023-01-01T12:37:38.866Z,96721.44
2023-01-01T12:40:33.929Z,96719.16
2023-01-01T12:44:16.607Z,96717.16
2023-01-01T12:47:05.761Z,96699.81
2023-01-01T12:49:55.307Z,96707.22
2023-01-01T12:52:33.923Z,96702.06
2023-01-01T12:55:33.751Z,96694.84
2023-01-01T12:58:14.786Z,96696.41
2023-01-01T13:00:54.955Z,96695.50
2023-01-01T13:03:29.581Z,96691.16
2023-01-01T13:05:59.482Z,96694.56
2023-01-01T13:08:28.094Z,96693.34
2023-01-01T13:10:58.379Z,96691.22
2023-01-01T13:13:27.419Z,96694.00
2023-01-01T13:15:57.869Z,96701.47
2023-01-01T13:18:34.322Z,96707.34
2023-01-01T13:21:09.149Z,96717.88
2023-01-01T13:23:51.377Z,96722.72
2023-01-01T13:26:40.165Z,96723.09
2023-01-01T13:29:33.649Z,96725.91
2023-01-01T13:32:10.764Z,96730.66
2023-01-01T13:34:44.874Z,96729.31
2023-01-01T13:37:33.544Z,96734.66
2023-01-01T13:40:03.143Z,96728.75
2023-01-01T13:42:52.254Z,96737.06
2023-01-01T13:46:09.437Z,96731.81
2023-01-01T13:48:29.985Z,96735.22
2023-01-01T13:51:05.555Z,96726.28
2023-01-01T13:53:53.471Z,96731.50
2023-01-01T13:56:33.008Z,96732.47
2023-01-01T13:59:37.055Z,96734.69
2023-01-01T14:02:18.731Z,96733.06
2023-01-01T14:04:48.937Z,96737.19
2023-01-01T14:07:50.101Z,96748.88
2023-01-01T14:10:33.271Z,96749.19
2023-01-01T14:13:16.973Z,96748.88
2023-01-01T14:15:54.102Z,96752.47
2023-01-01T14:18:48.607Z,96755.19
2023-01-01T14:21:19.010Z,96757.75
2023-01-01T14:23:51.913Z,96770.03
2023-01-01T14:26:22.381Z,96760.22
2023-01-01T14:28:54.936Z,96764.91
2023-01-01T14:31:28.101Z,96767.59
2023-01-01T14:33:58.997Z,96767.47
2023-01-01T14:36:29.517Z,96771.00
2023-01-01T14:39:03.927Z,96769.53
2023-01-01T14:41:33.802Z,96773.84
2023-01-01T14:44:06.470Z,96780.31
2023-01-01T14:46:35.220Z,96782.09
2023-01-01T14:49:08.609Z,96788.50
2023-01-01T14:51:44.125Z,96790.63
2023-01-01T14:54:18.688Z,96790.72
2023-01-01T14:56:49.683Z,96789.44
2023-01-01T14:59:24.118Z,96784.84
2023-01-01T15:02:01.805Z,96786.19
2023-01-01T15:04:30.669Z,96786.91
2023-01-01T15:07:01.301Z,96782.84
2023-01-01T15:09:32.393Z,96781.22
2023-01-01T15:12:01.624Z,96774.94
2023-01-01T15:14:37.840Z,96790.53
2023-01-01T15:17:07.761Z,96790.78
2023-01-01T15:19:37.917Z,96791.25
2023-01-01T15:22:22.576Z,96792.25
2023-01-01T15:24:52.628Z,96784.97
2023-01-01T15:27:24.902Z,96788.56
2023-01-01T15:29:53.765Z,96799.63
2023-01-01T15:32:27.092Z,96789.41
2023-01-01T15:34:57.459Z,96793.78
2023-01-01T15:37:31.783Z,96795.34
2023-01-01T15:40:05.850Z,96786.19
2023-01-01T15:42:36.958Z,96792.75
2023-01-01T15:45:24.324Z,96786.06
2023-01-01T15:47:54.227Z,96796.47
2023-01-01T15:50:27.544Z,96793.81
2023-01-01T15:52:57.960Z,96804.63
2023-01-01T15:55:31.336Z,96801.53
2023-01-01T15:58:00.512Z,96806.03
2023-01-01T16:00:30.914Z,96806.69
2023-01-01T16:03:02.323Z,96809.78
2023-01-01T16:05:31.542Z,96810.34
2023-01-01T16:08:01.500Z,96787.09
2023-01-01T16:10:32.094Z,96809.25
2023-01-01T16:13:00.480Z,96813.84
2023-01-01T16:15:29.251Z,96816.59
2023-01-01T16:17:57.688Z,96816.19
2023-01-01T16:20:27.015Z,96822.97
2023-01-01T16:22:55.421Z,96826.44
2023-01-01T16:25:24.677Z,96825.00
2023-01-01T16:27:54.446Z,96830.28
2023-01-01T16:30:26.984Z,96825.44
2023-01-01T16:32:55.869Z,96837.66
2023-01-01T16:35:24.489Z,96830.38
2023-01-01T16:38:18.432Z,96831.72
2023-01-01T16:41:02.291Z,96842.94
2023-01-01T16:43:57.789Z,96834.28
2023-01-01T16:46:28.210Z,96832.38
2023-01-01T16:48:57.274Z,96833.28
2023-01-01T16:51:27.089Z,96830.81
2023-01-01T16:53:57.500Z,96841.31
2023-01-01T16:56:26.118Z,96832.19
2023-01-01T16:59:02.588Z,96836.38
2023-01-01T17:01:33.704Z,96834.38
2023-01-01T17:04:04.859Z,96838.91
2023-01-01T17:06:33.612Z,96840.38
2023-01-01T17:09:02.466Z,96842.38
2023-01-01T17:11:30.985Z,96845.72
2023-01-01T17:14:00.115Z,96851.84
2023-01-01T17:16:36.198Z,96843.09
2023-01-01T17:19:15.582Z,96841.47
2023-01-01T17:21:45.834Z,96850.50
2023-01-01T17:24:14.780Z,96849.13
2023-01-01T17:26:43.735Z,96846.09
2023-01-01T17:29:13.342Z,96846.56
2023-01-01T17:31:43.841Z,96835.97
2023-01-01T17:34:14.847Z,96845.03
2023-01-01T17:36:44.879Z,96839.28
2023-01-01T17:39:15.167Z,96835.81
2023-01-01T17:41:45.461Z,96843.41
2023-01-01T17:44:14.142Z,96838.44
2023-01-01T17:46:44.732Z,96841.91
2023-01-01T17:49:15.314Z,96840.63
2023-01-01T17:51:44.058Z,96834.22
2023-01-01T17:54:14.015Z,96834.78
2023-01-01T17:56:42.510Z,96844.38
2023-01-01T17:59:13.747Z,96841.94
2023-01-01T18:01:42.574Z,96841.00
2023-01-01T18:04:11.712Z,96835.81
2023-01-01T18:06:44.898Z,96841.75
2023-01-01T18:09:16.755Z,96844.13
2023-01-01T18:11:45.849Z,96834.66
2023-01-01T18:14:17.371Z,96837.94
2023-01-01T18:16:49.755Z,96840.50
2023-01-01T18:19:18.502Z,96838.75
2023-01-01T18:21:48.414Z,96832.91
2023-01-01T18:24:17.560Z,96841.47
2023-01-01T18:26:46.126Z,96831.28
2023-01-01T18:29:14.936Z,96837.09
2023-01-01T18:31:46.678Z,96835.38
2023-01-01T18:34:15.667Z,96837.59
2023-01-01T18:36:47.155Z,96839.97
2023-01-01T18:39:21.692Z,96839.78
2023-01-01T18:42:32.596Z,96841.38
2023-01-01T18:45:17.986Z,96842.25
2023-01-01T18:47:47.026Z,96838.50
2023-01-01T18:50:24.119Z,96836.53
2023-01-01T18:52:55.235Z,96825.50
2023-01-01T18:55:29.341Z,96822.22
2023-01-01T18:58:20.224Z,96828.97
2023-01-01T19:00:49.216Z,96828.31
2023-01-01T19:03:22.991Z,96828.22
2023-01-01T19:05:52.036Z,96823.09
2023-01-01T19:08:22.548Z,96828.31
2023-01-01T19:10:55.236Z,96825.84
2023-01-01T19:13:26.232Z,96821.91
2023-01-01T19:15:56.616Z,96823.31
2023-01-01T19:18:26.709Z,96813.19
2023-01-01T19:21:00.645Z,96819.97
2023-01-01T19:23:30.119Z,96820.28
2023-01-01T19:26:02.957Z,96821.44
2023-01-01T19:28:40.431Z,96817.41
2023-01-01T19:31:11.556Z,96821.69
2023-01-01T19:33:45.768Z,96817.50
2023-01-01T19:36:14.972Z,96817.25
2023-01-01T19:38:44.275Z,96807.63
2023-01-01T19:41:14.299Z,96805.88
2023-01-01T19:43:43.195Z,96802.59
2023-01-01T19:46:13.493Z,96811.09
2023-01-01T19:48:42.856Z,96799.03
2023-01-01T19:51:11.228Z,96805.72
2023-01-01T19:53:46.149Z,96780.63
2023-01-01T19:56:21.538Z,96795.34
2023-01-01T19:58:50.330Z,96803.81
2023-01-01T20:01:19.066Z,96798.72
2023-01-01T20:03:56.964Z,96798.81
2023-01-01T20:06:26.756Z,96790.41
2023-01-01T20:08:55.737Z,96791.25
2023-01-01T20:11:33.238Z,96795.59
2023-01-01T20:14:02.790Z,96797.50
2023-01-01T20:16:32.954Z,96801.09
2023-01-01T20:19:01.420Z,96792.97
2023-01-01T20:21:49.555Z,96790.69
2023-01-01T20:24:21.770Z,96796.69
2023-01-01T20:26:51.983Z,96795.94
2023-01-01T20:29:20.060Z,96795.22
2023-01-01T20:31:48.973Z,96794.56
2023-01-01T20:34:17.735Z,96795.72
2023-01-01T20:37:04.086Z,96768.06
2023-01-01T20:39:33.132Z,96787.47
2023-01-01T20:42:03.484Z,96785.41
2023-01-01T20:44:32.484Z,96775.63
2023-01-01T20:47:01.329Z,96786.22
2023-01-01T20:49:30.741Z,96771.28
2023-01-01T20:51:59.281Z,96768.78
2023-01-01T20:54:28.477Z,96766.47
2023-01-01T20:56:57.605Z,96756.72
2023-01-01T20:59:36.873Z,96761.28
2023-01-01T21:02:07.455Z,96760.50
2023-01-01T21:04:39.222Z,96760.41
2023-01-01T21:07:10.324Z,96759.66
2023-01-01T21:09:40.171Z,96757.88
2023-01-01T21:12:10.339Z,96764.59
2023-01-01T21:14:40.527Z,96763.75
2023-01-01T21:17:19.732Z,96763.69
2023-01-01T21:19:48.813Z,96762.72
2023-01-01T21:22:17.603Z,96765.16
2023-01-01T21:24:51.800Z,96766.75
2023-01-01T21:27:27.974Z,96766.84
2023-01-01T21:29:59.077Z,96756.13
2023-01-01T21:32:30.199Z,96755.47
2023-01-01T21:35:00.942Z,96756.63
2023-01-01T21:37:52.106Z,96749.06
2023-01-01T21:40:36.979Z,96745.66
2023-01-01T21:43:18.771Z,96745.75
2023-01-01T21:45:49.667Z,96752.56
2023-01-01T21:48:20.951Z,96743.97
2023-01-01T21:50:52.083Z,96741.34
2023-01-01T21:53:22.029Z,96747.97
2023-01-01T21:55:55.025Z,96747.91
2023-01-01T21:58:44.079Z,96734.94
2023-01-01T22:01:20.642Z,96729.88
2023-01-01T22:03:53.278Z,96740.06
2023-01-01T22:06:22.471Z,96738.81
2023-01-01T22:08:51.162Z,96732.13
2023-01-01T22:11:26.806Z,96726.28
2023-01-01T22:13:55.972Z,96721.06
2023-01-01T22:16:29.472Z,96720.00
2023-01-01T22:18:58.978Z,96722.41
2023-01-01T22:21:27.720Z,96718.03
2023-01-01T22:23:58.539Z,96723.06
2023-01-01T22:26:45.117Z,96729.88
2023-01-01T22:29:18.582Z,96726.69
2023-01-01T22:31:49.506Z,96721.78
2023-01-01T22:34:23.320Z,96725.41
2023-01-01T22:36:52.231Z,96723.16
2023-01-01T22:39:28.354Z,96721.78
2023-01-01T22:41:57.194Z,96715.03
2023-01-01T22:44:28.105Z,96724.00
2023-01-01T22:47:46.426Z,96715.63
2023-01-01T22:50:22.559Z,96721.56
2023-01-01T22:52:51.612Z,96711.81
2023-01-01T22:59:15.266Z,96704.63
2023-01-01T23:02:08.536Z,96698.81
2023-01-01T23:05:02.742Z,96679.22
2023-01-01T23:07:38.034Z,96680.72
2023-01-01T23:10:11.876Z,96686.25
2023-01-01T23:12:43.104Z,96680.72
2023-01-01T23:15:30.085Z,96669.28
2023-01-01T23:17:58.802Z,96662.91
2023-01-01T23:20:27.921Z,96666.63
2023-01-01T23:23:01.968Z,96662.13
2023-01-01T23:25:30.920Z,96669.47
2023-01-01T23:27:59.746Z,96663.38
2023-01-01T23:30:28.589Z,96662.50
2023-01-01T23:32:57.586Z,96657.44
2023-01-01T23:35:26.280Z,96651.66
2023-01-01T23:38:03.264Z,96652.88
2023-01-01T23:40:38.498Z,96654.09
2023-01-01T23:43:11.657Z,96647.81
2023-01-01T23:45:41.470Z,96645.66
2023-01-01T23:48:10.383Z,96638.00
2023-01-01T23:50:39.258Z,96639.75
2023-01-01T23:54:13.847Z,96637.81
2023-01-01T23:56:45.301Z,96632.41
2023-01-01T23:59:13.915Z,96638.97
